sensor_id;sensor_type;location;lat;lon;timestamp;temperature;humidity
45044;DHT22;30784;48.490;9.688;2023-02-28T00:01:07;0.40;52.20
45044;DHT22;30784;48.490;9.688;2023-02-28T00:03:33;0.40;52.00
45044;DHT22;30784;48.490;9.688;2023-02-28T00:06:01;0.40;52.10
45044;DHT22;30784;48.490;9.688;2023-02-28T00:08:27;0.40;52.00
45044;DHT22;30784;48.490;9.688;2023-02-28T00:10:53;0.40;52.20
45044;DHT22;30784;48.490;9.688;2023-02-28T00:13:19;0.40;52.30
45044;DHT22;30784;48.490;9.688;2023-02-28T00:15:44;0.40;52.20
45044;DHT22;30784;48.490;9.688;2023-02-28T00:18:11;0.40;52.20
45044;DHT22;30784;48.490;9.688;2023-02-28T00:20:37;0.40;52.10
45044;DHT22;30784;48.490;9.688;2023-02-28T00:23:02;0.40;52.20
45044;DHT22;30784;48.490;9.688;2023-02-28T00:25:28;0.40;52.20
45044;DHT22;30784;48.490;9.688;2023-02-28T00:27:53;0.40;52.20
45044;DHT22;30784;48.490;9.688;2023-02-28T00:30:21;0.40;52.20
45044;DHT22;30784;48.490;9.688;2023-02-28T00:32:48;0.40;52.20
45044;DHT22;30784;48.490;9.688;2023-02-28T00:35:14;0.40;52.40
45044;DHT22;30784;48.490;9.688;2023-02-28T00:37:40;0.40;52.20
45044;DHT22;30784;48.490;9.688;2023-02-28T00:40:06;0.40;52.20
45044;DHT22;30784;48.490;9.688;2023-02-28T00:42:33;0.30;52.30
45044;DHT22;30784;48.490;9.688;2023-02-28T00:44:59;0.40;52.40
45044;DHT22;30784;48.490;9.688;2023-02-28T00:47:25;0.30;52.40
45044;DHT22;30784;48.490;9.688;2023-02-28T00:49:51;0.40;52.50
45044;DHT22;30784;48.490;9.688;2023-02-28T00:52:16;0.30;52.30
45044;DHT22;30784;48.490;9.688;2023-02-28T00:54:42;0.30;52.50
45044;DHT22;30784;48.490;9.688;2023-02-28T00:57:07;0.30;52.30
45044;DHT22;30784;48.490;9.688;2023-02-28T00:59:34;0.30;52.40
45044;DHT22;30784;48.490;9.688;2023-02-28T01:02:00;0.40;52.40
45044;DHT22;30784;48.490;9.688;2023-02-28T01:04:25;0.30;52.40
45044;DHT22;30784;48.490;9.688;2023-02-28T01:06:51;0.30;52.40
45044;DHT22;30784;48.490;9.688;2023-02-28T01:09:16;0.30;52.50
45044;DHT22;30784;48.490;9.688;2023-02-28T01:11:42;0.30;52.50
45044;DHT22;30784;48.490;9.688;2023-02-28T01:14:12;0.40;52.50
45044;DHT22;30784;48.490;9.688;2023-02-28T01:16:38;0.30;52.50
45044;DHT22;30784;48.490;9.688;2023-02-28T01:19:04;0.30;52.50
45044;DHT22;30784;48.490;9.688;2023-02-28T01:21:29;0.30;52.50
45044;DHT22;30784;48.490;9.688;2023-02-28T01:23:56;0.30;52.50
45044;DHT22;30784;48.490;9.688;2023-02-28T01:26:23;0.30;52.70
45044;DHT22;30784;48.490;9.688;2023-02-28T01:28:49;0.30;52.70
45044;DHT22;30784;48.490;9.688;2023-02-28T01:31:15;0.30;52.60
45044;DHT22;30784;48.490;9.688;2023-02-28T01:33:41;0.30;52.60
45044;DHT22;30784;48.490;9.688;2023-02-28T01:36:15;0.30;52.70
45044;DHT22;30784;48.490;9.688;2023-02-28T01:38:41;0.30;52.70
45044;DHT22;30784;48.490;9.688;2023-02-28T01:41:08;0.30;52.70
45044;DHT22;30784;48.490;9.688;2023-02-28T01:46:11;0.30;52.80
45044;DHT22;30784;48.490;9.688;2023-02-28T01:49:21;0.30;52.90
45044;DHT22;30784;48.490;9.688;2023-02-28T01:51:46;0.20;52.80
45044;DHT22;30784;48.490;9.688;2023-02-28T01:54:28;0.20;52.70
45044;DHT22;30784;48.490;9.688;2023-02-28T01:56:57;0.30;52.90
45044;DHT22;30784;48.490;9.688;2023-02-28T01:59:36;0.20;52.90
45044;DHT22;30784;48.490;9.688;2023-02-28T02:02:03;0.20;53.00
45044;DHT22;30784;48.490;9.688;2023-02-28T02:04:36;0.20;53.00
45044;DHT22;30784;48.490;9.688;2023-02-28T02:07:03;0.20;53.00
45044;DHT22;30784;48.490;9.688;2023-02-28T02:09:29;0.20;53.10
45044;DHT22;30784;48.490;9.688;2023-02-28T02:11:55;0.20;53.00
45044;DHT22;30784;48.490;9.688;2023-02-28T02:17:03;0.20;53.20
45044;DHT22;30784;48.490;9.688;2023-02-28T02:20:08;0.20;53.30
45044;DHT22;30784;48.490;9.688;2023-02-28T02:22:55;0.20;53.20
45044;DHT22;30784;48.490;9.688;2023-02-28T02:25:32;0.20;53.30
45044;DHT22;30784;48.490;9.688;2023-02-28T02:35:55;0.20;53.50
45044;DHT22;30784;48.490;9.688;2023-02-28T02:38:43;0.20;54.40
45044;DHT22;30784;48.490;9.688;2023-02-28T02:41:17;0.20;54.20
45044;DHT22;30784;48.490;9.688;2023-02-28T02:43:52;0.10;54.00
45044;DHT22;30784;48.490;9.688;2023-02-28T02:46:28;0.10;54.00
45044;DHT22;30784;48.490;9.688;2023-02-28T02:48:56;0.10;54.00
45044;DHT22;30784;48.490;9.688;2023-02-28T02:51:24;0.10;54.20
45044;DHT22;30784;48.490;9.688;2023-02-28T02:53:56;0.10;54.00
45044;DHT22;30784;48.490;9.688;2023-02-28T02:56:27;0.10;54.00
45044;DHT22;30784;48.490;9.688;2023-02-28T02:58:59;0.00;54.00
45044;DHT22;30784;48.490;9.688;2023-02-28T03:01:27;0.00;53.90
45044;DHT22;30784;48.490;9.688;2023-02-28T03:04:06;0.00;53.90
45044;DHT22;30784;48.490;9.688;2023-02-28T03:06:32;0.00;53.90
45044;DHT22;30784;48.490;9.688;2023-02-28T03:08:59;0.00;53.90
45044;DHT22;30784;48.490;9.688;2023-02-28T03:11:25;0.00;54.10
45044;DHT22;30784;48.490;9.688;2023-02-28T03:14:02;0.00;54.00
45044;DHT22;30784;48.490;9.688;2023-02-28T03:19:54;0.00;54.00
45044;DHT22;30784;48.490;9.688;2023-02-28T03:27:42;0.00;54.00
45044;DHT22;30784;48.490;9.688;2023-02-28T03:30:36;0.00;54.10
45044;DHT22;30784;48.490;9.688;2023-02-28T03:33:30;0.00;54.00
45044;DHT22;30784;48.490;9.688;2023-02-28T03:36:16;0.00;54.10
45044;DHT22;30784;48.490;9.688;2023-02-28T03:38:58;0.00;54.00
45044;DHT22;30784;48.490;9.688;2023-02-28T03:41:54;0.00;54.00
45044;DHT22;30784;48.490;9.688;2023-02-28T03:44:25;0.00;54.00
45044;DHT22;30784;48.490;9.688;2023-02-28T03:46:59;0.00;54.10
45044;DHT22;30784;48.490;9.688;2023-02-28T03:49:32;0.00;53.90
45044;DHT22;30784;48.490;9.688;2023-02-28T03:52:02;0.10;54.00
45044;DHT22;30784;48.490;9.688;2023-02-28T03:54:31;0.10;54.00
45044;DHT22;30784;48.490;9.688;2023-02-28T03:57:24;0.10;54.10
45044;DHT22;30784;48.490;9.688;2023-02-28T04:00:16;0.10;53.90
45044;DHT22;30784;48.490;9.688;2023-02-28T04:02:44;0.10;53.90
45044;DHT22;30784;48.490;9.688;2023-02-28T04:05:10;0.10;54.00
45044;DHT22;30784;48.490;9.688;2023-02-28T04:07:36;0.10;54.00
45044;DHT22;30784;48.490;9.688;2023-02-28T04:10:02;0.10;54.00
45044;DHT22;30784;48.490;9.688;2023-02-28T04:12:28;0.10;54.00
45044;DHT22;30784;48.490;9.688;2023-02-28T04:14:53;0.10;53.90
45044;DHT22;30784;48.490;9.688;2023-02-28T04:17:19;0.10;54.00
45044;DHT22;30784;48.490;9.688;2023-02-28T04:19:44;0.20;54.00
45044;DHT22;30784;48.490;9.688;2023-02-28T04:22:10;0.30;54.10
45044;DHT22;30784;48.490;9.688;2023-02-28T04:24:36;0.20;54.00
45044;DHT22;30784;48.490;9.688;2023-02-28T04:27:02;0.20;53.90
45044;DHT22;30784;48.490;9.688;2023-02-28T04:29:30;0.20;53.90
45044;DHT22;30784;48.490;9.688;2023-02-28T04:31:57;0.20;53.90
45044;DHT22;30784;48.490;9.688;2023-02-28T04:34:27;0.20;54.10
45044;DHT22;30784;48.490;9.688;2023-02-28T04:36:53;0.20;53.90
45044;DHT22;30784;48.490;9.688;2023-02-28T04:39:21;0.20;54.00
45044;DHT22;30784;48.490;9.688;2023-02-28T04:41:47;0.20;54.00
45044;DHT22;30784;48.490;9.688;2023-02-28T04:44:13;0.20;54.00
45044;DHT22;30784;48.490;9.688;2023-02-28T04:46:39;0.20;53.90
45044;DHT22;30784;48.490;9.688;2023-02-28T04:49:05;0.20;54.00
45044;DHT22;30784;48.490;9.688;2023-02-28T04:51:30;0.20;54.00
45044;DHT22;30784;48.490;9.688;2023-02-28T04:53:56;0.20;54.10
45044;DHT22;30784;48.490;9.688;2023-02-28T04:56:22;0.20;54.10
45044;DHT22;30784;48.490;9.688;2023-02-28T04:58:48;0.20;54.10
45044;DHT22;30784;48.490;9.688;2023-02-28T05:03:44;0.20;54.20
45044;DHT22;30784;48.490;9.688;2023-02-28T05:06:11;0.20;54.20
45044;DHT22;30784;48.490;9.688;2023-02-28T05:08:38;0.20;54.30
45044;DHT22;30784;48.490;9.688;2023-02-28T05:11:05;0.20;54.40
45044;DHT22;30784;48.490;9.688;2023-02-28T05:13:31;0.20;54.40
45044;DHT22;30784;48.490;9.688;2023-02-28T05:15:56;0.20;54.40
45044;DHT22;30784;48.490;9.688;2023-02-28T05:18:22;0.20;54.90
45044;DHT22;30784;48.490;9.688;2023-02-28T05:20:47;0.20;54.30
45044;DHT22;30784;48.490;9.688;2023-02-28T05:23:14;0.20;54.40
45044;DHT22;30784;48.490;9.688;2023-02-28T05:25:40;0.20;54.40
45044;DHT22;30784;48.490;9.688;2023-02-28T05:28:07;0.20;54.50
45044;DHT22;30784;48.490;9.688;2023-02-28T05:30:33;0.20;54.60
45044;DHT22;30784;48.490;9.688;2023-02-28T05:32:58;0.20;54.60
45044;DHT22;30784;48.490;9.688;2023-02-28T05:35:25;0.20;54.50
45044;DHT22;30784;48.490;9.688;2023-02-28T05:37:51;0.20;54.60
45044;DHT22;30784;48.490;9.688;2023-02-28T05:40:17;0.30;54.60
45044;DHT22;30784;48.490;9.688;2023-02-28T05:42:43;0.30;54.60
45044;DHT22;30784;48.490;9.688;2023-02-28T05:45:09;0.20;54.60
45044;DHT22;30784;48.490;9.688;2023-02-28T05:47:35;0.20;54.60
45044;DHT22;30784;48.490;9.688;2023-02-28T05:50:01;0.20;54.60
45044;DHT22;30784;48.490;9.688;2023-02-28T05:52:27;0.20;54.70
45044;DHT22;30784;48.490;9.688;2023-02-28T05:54:53;0.20;54.70
45044;DHT22;30784;48.490;9.688;2023-02-28T05:57:18;0.20;54.80
45044;DHT22;30784;48.490;9.688;2023-02-28T05:59:44;0.20;54.80
45044;DHT22;30784;48.490;9.688;2023-02-28T06:02:15;0.20;54.90
45044;DHT22;30784;48.490;9.688;2023-02-28T06:04:42;0.10;54.80
45044;DHT22;30784;48.490;9.688;2023-02-28T06:07:09;0.10;54.90
45044;DHT22;30784;48.490;9.688;2023-02-28T06:09:35;0.10;54.90
45044;DHT22;30784;48.490;9.688;2023-02-28T06:12:01;0.10;54.90
45044;DHT22;30784;48.490;9.688;2023-02-28T06:14:29;0.10;54.90
45044;DHT22;30784;48.490;9.688;2023-02-28T06:16:56;0.20;55.10
45044;DHT22;30784;48.490;9.688;2023-02-28T06:19:22;0.10;55.00
45044;DHT22;30784;48.490;9.688;2023-02-28T06:21:49;0.10;55.10
45044;DHT22;30784;48.490;9.688;2023-02-28T06:24:17;0.10;55.10
45044;DHT22;30784;48.490;9.688;2023-02-28T06:26:43;0.10;55.00
45044;DHT22;30784;48.490;9.688;2023-02-28T06:29:08;0.10;55.10
45044;DHT22;30784;48.490;9.688;2023-02-28T06:31:34;0.10;55.10
45044;DHT22;30784;48.490;9.688;2023-02-28T06:33:59;0.10;55.00
45044;DHT22;30784;48.490;9.688;2023-02-28T06:36:25;0.10;55.20
45044;DHT22;30784;48.490;9.688;2023-02-28T06:38:50;0.10;55.20
45044;DHT22;30784;48.490;9.688;2023-02-28T06:41:21;0.00;55.20
45044;DHT22;30784;48.490;9.688;2023-02-28T06:43:47;0.10;55.30
45044;DHT22;30784;48.490;9.688;2023-02-28T06:46:14;0.00;55.20
45044;DHT22;30784;48.490;9.688;2023-02-28T06:48:40;0.00;55.20
45044;DHT22;30784;48.490;9.688;2023-02-28T06:51:12;0.00;55.30
45044;DHT22;30784;48.490;9.688;2023-02-28T06:53:38;0.00;55.30
45044;DHT22;30784;48.490;9.688;2023-02-28T06:56:07;0.00;55.40
45044;DHT22;30784;48.490;9.688;2023-02-28T06:58:34;0.00;55.50
45044;DHT22;30784;48.490;9.688;2023-02-28T07:01:00;0.00;55.50
45044;DHT22;30784;48.490;9.688;2023-02-28T07:03:25;0.00;55.50
45044;DHT22;30784;48.490;9.688;2023-02-28T07:05:51;0.00;55.50
45044;DHT22;30784;48.490;9.688;2023-02-28T07:08:17;-0.10;55.40
45044;DHT22;30784;48.490;9.688;2023-02-28T07:10:42;-0.10;55.50
45044;DHT22;30784;48.490;9.688;2023-02-28T07:13:09;-0.10;55.50
45044;DHT22;30784;48.490;9.688;2023-02-28T07:15:36;-0.10;55.50
45044;DHT22;30784;48.490;9.688;2023-02-28T07:18:02;-0.10;55.70
45044;DHT22;30784;48.490;9.688;2023-02-28T07:20:28;-0.10;55.60
45044;DHT22;30784;48.490;9.688;2023-02-28T07:22:54;-0.10;55.70
45044;DHT22;30784;48.490;9.688;2023-02-28T07:25:23;-0.10;55.70
45044;DHT22;30784;48.490;9.688;2023-02-28T07:27:50;-0.10;55.80
45044;DHT22;30784;48.490;9.688;2023-02-28T07:30:16;-0.10;55.90
45044;DHT22;30784;48.490;9.688;2023-02-28T07:32:42;-0.10;55.90
45044;DHT22;30784;48.490;9.688;2023-02-28T07:35:08;-0.10;55.90
45044;DHT22;30784;48.490;9.688;2023-02-28T07:37:33;-0.10;56.00
45044;DHT22;30784;48.490;9.688;2023-02-28T07:40:06;-0.10;56.00
45044;DHT22;30784;48.490;9.688;2023-02-28T07:42:36;-0.10;55.90
45044;DHT22;30784;48.490;9.688;2023-02-28T07:45:03;-0.10;56.00
45044;DHT22;30784;48.490;9.688;2023-02-28T07:47:30;0.00;55.90
45044;DHT22;30784;48.490;9.688;2023-02-28T07:49:56;0.00;55.90
45044;DHT22;30784;48.490;9.688;2023-02-28T07:52:22;0.00;55.80
45044;DHT22;30784;48.490;9.688;2023-02-28T07:54:49;0.00;55.70
45044;DHT22;30784;48.490;9.688;2023-02-28T07:57:14;0.00;55.80
45044;DHT22;30784;48.490;9.688;2023-02-28T07:59:40;0.00;55.90
45044;DHT22;30784;48.490;9.688;2023-02-28T08:02:05;-0.10;55.90
45044;DHT22;30784;48.490;9.688;2023-02-28T08:04:34;-0.10;55.80
45044;DHT22;30784;48.490;9.688;2023-02-28T08:06:59;0.00;55.90
45044;DHT22;30784;48.490;9.688;2023-02-28T08:09:25;0.00;56.00
45044;DHT22;30784;48.490;9.688;2023-02-28T08:11:51;-0.10;55.90
45044;DHT22;30784;48.490;9.688;2023-02-28T08:14:16;-0.10;56.00
45044;DHT22;30784;48.490;9.688;2023-02-28T08:16:43;-0.10;56.10
45044;DHT22;30784;48.490;9.688;2023-02-28T08:19:08;-0.10;56.10
45044;DHT22;30784;48.490;9.688;2023-02-28T08:21:34;-0.10;56.10
45044;DHT22;30784;48.490;9.688;2023-02-28T08:24:00;-0.10;56.20
45044;DHT22;30784;48.490;9.688;2023-02-28T08:26:25;-0.10;56.30
45044;DHT22;30784;48.490;9.688;2023-02-28T08:28:51;-0.10;56.10
45044;DHT22;30784;48.490;9.688;2023-02-28T08:31:17;-0.10;56.10
45044;DHT22;30784;48.490;9.688;2023-02-28T08:33:43;-0.10;56.10
45044;DHT22;30784;48.490;9.688;2023-02-28T08:36:10;-0.10;56.20
45044;DHT22;30784;48.490;9.688;2023-02-28T08:38:36;-0.10;56.30
45044;DHT22;30784;48.490;9.688;2023-02-28T08:41:04;-0.10;56.20
45044;DHT22;30784;48.490;9.688;2023-02-28T08:43:33;-0.10;56.20
45044;DHT22;30784;48.490;9.688;2023-02-28T08:45:59;-0.10;56.30
45044;DHT22;30784;48.490;9.688;2023-02-28T08:48:26;0.00;56.40
45044;DHT22;30784;48.490;9.688;2023-02-28T08:50:59;0.00;56.20
45044;DHT22;30784;48.490;9.688;2023-02-28T08:53:26;0.00;56.10
45044;DHT22;30784;48.490;9.688;2023-02-28T08:56:06;0.00;56.10
45044;DHT22;30784;48.490;9.688;2023-02-28T08:58:33;0.00;56.10
45044;DHT22;30784;48.490;9.688;2023-02-28T09:01:00;0.00;56.20
45044;DHT22;30784;48.490;9.688;2023-02-28T09:03:26;0.00;56.20
45044;DHT22;30784;48.490;9.688;2023-02-28T09:06:00;0.00;56.20
45044;DHT22;30784;48.490;9.688;2023-02-28T09:08:29;0.00;56.30
45044;DHT22;30784;48.490;9.688;2023-02-28T09:10:55;0.00;56.30
45044;DHT22;30784;48.490;9.688;2023-02-28T09:13:26;0.00;56.30
45044;DHT22;30784;48.490;9.688;2023-02-28T09:15:52;0.00;56.30
45044;DHT22;30784;48.490;9.688;2023-02-28T09:18:18;0.10;56.30
45044;DHT22;30784;48.490;9.688;2023-02-28T09:20:44;0.10;56.40
45044;DHT22;30784;48.490;9.688;2023-02-28T09:23:12;0.10;56.40
45044;DHT22;30784;48.490;9.688;2023-02-28T09:25:40;0.10;56.40
45044;DHT22;30784;48.490;9.688;2023-02-28T09:28:09;0.10;56.50
45044;DHT22;30784;48.490;9.688;2023-02-28T09:30:35;0.20;56.50
45044;DHT22;30784;48.490;9.688;2023-02-28T09:33:00;0.20;56.30
45044;DHT22;30784;48.490;9.688;2023-02-28T09:35:26;0.20;56.30
45044;DHT22;30784;48.490;9.688;2023-02-28T09:37:52;0.20;56.30
45044;DHT22;30784;48.490;9.688;2023-02-28T09:40:23;0.20;56.30
45044;DHT22;30784;48.490;9.688;2023-02-28T09:42:51;0.20;56.20
45044;DHT22;30784;48.490;9.688;2023-02-28T09:45:31;0.20;56.30
45044;DHT22;30784;48.490;9.688;2023-02-28T09:48:14;0.20;56.40
45044;DHT22;30784;48.490;9.688;2023-02-28T09:51:14;0.20;56.50
45044;DHT22;30784;48.490;9.688;2023-02-28T09:53:41;0.20;56.40
45044;DHT22;30784;48.490;9.688;2023-02-28T09:56:26;0.30;56.60
45044;DHT22;30784;48.490;9.688;2023-02-28T10:01:39;0.30;56.60
45044;DHT22;30784;48.490;9.688;2023-02-28T10:07:05;0.40;56.80
45044;DHT22;30784;48.490;9.688;2023-02-28T10:09:33;0.40;56.70
45044;DHT22;30784;48.490;9.688;2023-02-28T10:12:04;0.40;56.50
45044;DHT22;30784;48.490;9.688;2023-02-28T10:14:33;0.50;56.60
45044;DHT22;30784;48.490;9.688;2023-02-28T10:17:06;0.50;56.50
45044;DHT22;30784;48.490;9.688;2023-02-28T10:22:19;0.60;56.40
45044;DHT22;30784;48.490;9.688;2023-02-28T10:24:51;0.60;56.50
45044;DHT22;30784;48.490;9.688;2023-02-28T10:27:22;0.70;56.60
45044;DHT22;30784;48.490;9.688;2023-02-28T10:29:52;0.70;56.90
45044;DHT22;30784;48.490;9.688;2023-02-28T10:32:21;0.80;56.40
45044;DHT22;30784;48.490;9.688;2023-02-28T10:34:53;0.80;56.20
45044;DHT22;30784;48.490;9.688;2023-02-28T10:37:22;0.90;56.60
45044;DHT22;30784;48.490;9.688;2023-02-28T10:39:47;0.90;56.00
45044;DHT22;30784;48.490;9.688;2023-02-28T10:42:29;1.00;55.90
45044;DHT22;30784;48.490;9.688;2023-02-28T10:45:16;1.00;55.70
45044;DHT22;30784;48.490;9.688;2023-02-28T10:47:57;1.10;55.90
45044;DHT22;30784;48.490;9.688;2023-02-28T10:58:29;1.40;56.00
45044;DHT22;30784;48.490;9.688;2023-02-28T11:00:55;1.70;56.00
45044;DHT22;30784;48.490;9.688;2023-02-28T11:03:32;1.60;55.70
45044;DHT22;30784;48.490;9.688;2023-02-28T11:06:03;1.80;55.80
45044;DHT22;30784;48.490;9.688;2023-02-28T11:08:29;1.90;55.40
45044;DHT22;30784;48.490;9.688;2023-02-28T11:10:58;2.00;55.40
45044;DHT22;30784;48.490;9.688;2023-02-28T11:13:35;2.20;55.30
45044;DHT22;30784;48.490;9.688;2023-02-28T11:16:05;2.30;55.30
45044;DHT22;30784;48.490;9.688;2023-02-28T11:18:47;2.40;54.80
45044;DHT22;30784;48.490;9.688;2023-02-28T11:21:21;2.50;54.50
45044;DHT22;30784;48.490;9.688;2023-02-28T11:23:49;2.70;54.20
45044;DHT22;30784;48.490;9.688;2023-02-28T11:26:16;2.80;54.40
45044;DHT22;30784;48.490;9.688;2023-02-28T11:29:20;2.90;53.60
45044;DHT22;30784;48.490;9.688;2023-02-28T11:34:35;3.20;54.10
45044;DHT22;30784;48.490;9.688;2023-02-28T11:37:01;3.40;53.40
45044;DHT22;30784;48.490;9.688;2023-02-28T11:39:31;3.50;53.10
45044;DHT22;30784;48.490;9.688;2023-02-28T11:42:11;3.70;52.80
45044;DHT22;30784;48.490;9.688;2023-02-28T11:48:07;4.10;52.50
45044;DHT22;30784;48.490;9.688;2023-02-28T11:56:26;4.60;52.20
45044;DHT22;30784;48.490;9.688;2023-02-28T12:07:00;5.50;50.70
45044;DHT22;30784;48.490;9.688;2023-02-28T12:14:59;6.10;50.30
45044;DHT22;30784;48.490;9.688;2023-02-28T12:20:25;6.50;50.00
45044;DHT22;30784;48.490;9.688;2023-02-28T12:23:06;6.70;49.00
45044;DHT22;30784;48.490;9.688;2023-02-28T12:25:53;6.90;48.90
45044;DHT22;30784;48.490;9.688;2023-02-28T12:28:23;7.10;48.90
45044;DHT22;30784;48.490;9.688;2023-02-28T12:31:01;7.30;48.30
45044;DHT22;30784;48.490;9.688;2023-02-28T12:33:34;7.50;48.40
45044;DHT22;30784;48.490;9.688;2023-02-28T12:36:05;7.70;47.40
45044;DHT22;30784;48.490;9.688;2023-02-28T12:38:42;7.90;47.30
45044;DHT22;30784;48.490;9.688;2023-02-28T12:41:44;8.00;46.20
45044;DHT22;30784;48.490;9.688;2023-02-28T12:44:12;8.10;46.80
45044;DHT22;30784;48.490;9.688;2023-02-28T12:46:47;8.20;45.60
45044;DHT22;30784;48.490;9.688;2023-02-28T12:49:22;8.20;45.80
45044;DHT22;30784;48.490;9.688;2023-02-28T12:51:51;8.20;45.30
45044;DHT22;30784;48.490;9.688;2023-02-28T12:55:00;8.20;45.00
45044;DHT22;30784;48.490;9.688;2023-02-28T12:58:00;8.20;45.80
45044;DHT22;30784;48.490;9.688;2023-02-28T13:00:34;8.10;44.90
45044;DHT22;30784;48.490;9.688;2023-02-28T13:03:13;8.10;45.40
45044;DHT22;30784;48.490;9.688;2023-02-28T13:11:31;7.90;44.10
45044;DHT22;30784;48.490;9.688;2023-02-28T13:14:02;7.80;44.20
45044;DHT22;30784;48.490;9.688;2023-02-28T13:17:09;7.80;43.40
45044;DHT22;30784;48.490;9.688;2023-02-28T13:19:31;7.60;43.70
45044;DHT22;30784;48.490;9.688;2023-02-28T13:21:58;7.60;42.90
45044;DHT22;30784;48.490;9.688;2023-02-28T13:24:52;7.50;43.10
45044;DHT22;30784;48.490;9.688;2023-02-28T13:27:39;7.40;43.40
45044;DHT22;30784;48.490;9.688;2023-02-28T13:38:57;7.10;43.30
45044;DHT22;30784;48.490;9.688;2023-02-28T13:46:28;7.00;43.10
45044;DHT22;30784;48.490;9.688;2023-02-28T13:48:53;7.00;43.20
45044;DHT22;30784;48.490;9.688;2023-02-28T13:51:36;7.10;43.80
45044;DHT22;30784;48.490;9.688;2023-02-28T14:00:16;7.10;43.60
45044;DHT22;30784;48.490;9.688;2023-02-28T14:02:52;7.10;43.90
45044;DHT22;30784;48.490;9.688;2023-02-28T14:05:21;7.20;44.10
45044;DHT22;30784;48.490;9.688;2023-02-28T14:07:54;7.20;43.20
45044;DHT22;30784;48.490;9.688;2023-02-28T14:10:25;7.30;43.20
45044;DHT22;30784;48.490;9.688;2023-02-28T14:18:03;7.30;43.50
45044;DHT22;30784;48.490;9.688;2023-02-28T14:20:32;7.30;42.70
45044;DHT22;30784;48.490;9.688;2023-02-28T14:23:15;7.30;42.50
45044;DHT22;30784;48.490;9.688;2023-02-28T14:25:59;7.20;42.50
45044;DHT22;30784;48.490;9.688;2023-02-28T14:31:31;7.20;42.50
45044;DHT22;30784;48.490;9.688;2023-02-28T14:36:52;7.10;42.60
45044;DHT22;30784;48.490;9.688;2023-02-28T14:39:21;7.10;42.40
45044;DHT22;30784;48.490;9.688;2023-02-28T14:41:47;7.10;42.40
45044;DHT22;30784;48.490;9.688;2023-02-28T14:44:31;7.00;42.40
45044;DHT22;30784;48.490;9.688;2023-02-28T14:46:59;7.00;43.00
45044;DHT22;30784;48.490;9.688;2023-02-28T14:49:34;7.00;42.20
45044;DHT22;30784;48.490;9.688;2023-02-28T14:52:05;6.90;42.20
45044;DHT22;30784;48.490;9.688;2023-02-28T14:54:35;6.90;42.20
45044;DHT22;30784;48.490;9.688;2023-02-28T14:57:01;6.90;42.00
45044;DHT22;30784;48.490;9.688;2023-02-28T14:59:34;6.80;41.70
45044;DHT22;30784;48.490;9.688;2023-02-28T15:04:39;6.70;42.10
45044;DHT22;30784;48.490;9.688;2023-02-28T15:07:11;6.70;42.00
45044;DHT22;30784;48.490;9.688;2023-02-28T15:09:38;6.60;41.90
45044;DHT22;30784;48.490;9.688;2023-02-28T15:12:03;6.60;41.90
45044;DHT22;30784;48.490;9.688;2023-02-28T15:14:29;6.60;42.00
45044;DHT22;30784;48.490;9.688;2023-02-28T15:17:01;6.50;41.90
45044;DHT22;30784;48.490;9.688;2023-02-28T15:19:35;6.50;42.10
45044;DHT22;30784;48.490;9.688;2023-02-28T15:22:06;6.40;42.00
45044;DHT22;30784;48.490;9.688;2023-02-28T15:24:50;6.40;41.90
45044;DHT22;30784;48.490;9.688;2023-02-28T15:27:25;6.30;41.80
45044;DHT22;30784;48.490;9.688;2023-02-28T15:29:58;6.30;41.80
45044;DHT22;30784;48.490;9.688;2023-02-28T15:32:28;6.30;41.90
45044;DHT22;30784;48.490;9.688;2023-02-28T15:34:55;6.30;42.00
45044;DHT22;30784;48.490;9.688;2023-02-28T15:39:57;6.20;42.10
45044;DHT22;30784;48.490;9.688;2023-02-28T15:42:30;6.20;42.10
45044;DHT22;30784;48.490;9.688;2023-02-28T15:44:57;6.10;42.10
45044;DHT22;30784;48.490;9.688;2023-02-28T15:47:25;6.10;42.00
45044;DHT22;30784;48.490;9.688;2023-02-28T15:49:53;6.10;42.20
45044;DHT22;30784;48.490;9.688;2023-02-28T15:52:39;6.10;42.10
45044;DHT22;30784;48.490;9.688;2023-02-28T15:55:32;6.00;42.20
45044;DHT22;30784;48.490;9.688;2023-02-28T15:58:00;6.00;42.40
45044;DHT22;30784;48.490;9.688;2023-02-28T16:00:31;6.00;42.40
45044;DHT22;30784;48.490;9.688;2023-02-28T16:02:58;5.90;42.30
45044;DHT22;30784;48.490;9.688;2023-02-28T16:05:30;5.90;42.40
45044;DHT22;30784;48.490;9.688;2023-02-28T16:08:17;5.80;42.20
45044;DHT22;30784;48.490;9.688;2023-02-28T16:10:43;5.70;42.40
45044;DHT22;30784;48.490;9.688;2023-02-28T16:13:11;5.70;42.50
45044;DHT22;30784;48.490;9.688;2023-02-28T16:15:43;5.70;42.60
45044;DHT22;30784;48.490;9.688;2023-02-28T16:18:10;5.60;42.60
45044;DHT22;30784;48.490;9.688;2023-02-28T16:20:36;5.60;42.80
45044;DHT22;30784;48.490;9.688;2023-02-28T16:23:02;5.60;42.80
45044;DHT22;30784;48.490;9.688;2023-02-28T16:25:38;5.50;42.90
45044;DHT22;30784;48.490;9.688;2023-02-28T16:28:08;5.50;43.00
45044;DHT22;30784;48.490;9.688;2023-02-28T16:30:35;5.40;43.10
45044;DHT22;30784;48.490;9.688;2023-02-28T16:33:01;5.40;43.10
45044;DHT22;30784;48.490;9.688;2023-02-28T16:35:26;5.30;43.20
45044;DHT22;30784;48.490;9.688;2023-02-28T16:37:53;5.30;43.20
45044;DHT22;30784;48.490;9.688;2023-02-28T16:40:24;5.30;43.30
45044;DHT22;30784;48.490;9.688;2023-02-28T16:42:52;5.20;43.40
45044;DHT22;30784;48.490;9.688;2023-02-28T16:45:25;5.20;43.70
45044;DHT22;30784;48.490;9.688;2023-02-28T16:47:51;5.10;43.60
45044;DHT22;30784;48.490;9.688;2023-02-28T16:50:22;5.10;43.60
45044;DHT22;30784;48.490;9.688;2023-02-28T16:52:49;5.10;43.70
45044;DHT22;30784;48.490;9.688;2023-02-28T16:55:17;5.00;43.70
45044;DHT22;30784;48.490;9.688;2023-02-28T16:57:43;5.00;43.70
45044;DHT22;30784;48.490;9.688;2023-02-28T17:00:12;4.90;43.70
45044;DHT22;30784;48.490;9.688;2023-02-28T17:02:38;4.90;43.80
45044;DHT22;30784;48.490;9.688;2023-02-28T17:05:04;4.90;44.00
45044;DHT22;30784;48.490;9.688;2023-02-28T17:07:32;4.80;44.00
45044;DHT22;30784;48.490;9.688;2023-02-28T17:09:58;4.80;44.10
45044;DHT22;30784;48.490;9.688;2023-02-28T17:12:26;4.80;44.10
45044;DHT22;30784;48.490;9.688;2023-02-28T17:14:52;4.70;44.20
45044;DHT22;30784;48.490;9.688;2023-02-28T17:17:20;4.70;44.20
45044;DHT22;30784;48.490;9.688;2023-02-28T17:19:47;4.60;44.30
45044;DHT22;30784;48.490;9.688;2023-02-28T17:22:12;4.60;44.30
45044;DHT22;30784;48.490;9.688;2023-02-28T17:24:38;4.60;44.70
45044;DHT22;30784;48.490;9.688;2023-02-28T17:27:04;4.50;44.40
45044;DHT22;30784;48.490;9.688;2023-02-28T17:29:30;4.50;44.50
45044;DHT22;30784;48.490;9.688;2023-02-28T17:31:55;4.40;45.00
45044;DHT22;30784;48.490;9.688;2023-02-28T17:34:21;4.40;45.00
45044;DHT22;30784;48.490;9.688;2023-02-28T17:36:49;4.40;44.70
45044;DHT22;30784;48.490;9.688;2023-02-28T17:39:16;4.30;44.70
45044;DHT22;30784;48.490;9.688;2023-02-28T17:41:46;4.30;44.70
45044;DHT22;30784;48.490;9.688;2023-02-28T17:44:12;4.30;44.80
45044;DHT22;30784;48.490;9.688;2023-02-28T17:46:38;4.30;44.80
45044;DHT22;30784;48.490;9.688;2023-02-28T17:49:03;4.20;44.90
45044;DHT22;30784;48.490;9.688;2023-02-28T17:51:29;4.20;44.90
45044;DHT22;30784;48.490;9.688;2023-02-28T17:53:55;4.20;45.00